EHKD/DHR METAR and TAF weather

Enter ICAO airport designator
Station Type Date Time Source
EHKD METAR 2019/08/25 03:25 UTC NOAA

EHKD 250325Z AUTO 08004KT 9999 BKN330 18/15 Q1018 BLU


Station Type Date Time Source
EHKD Decoded METAR 2019/08/25 03:25 UTC NOAA

Station name not available
Aug 24, 2019 - 11:25 PM EDT / 2019.08.25 0325 UTC
Wind: from the E (080 degrees) at 5 MPH (4 KT):0
Visibility: greater than 7 mile(s):0
Sky conditions: mostly cloudy
Temperature: 64 F (18 C)
Dew Point: 59 F (15 C)
Relative Humidity: 82%
Pressure (altimeter): 30.06 in. Hg (1018 hPa)
ob: EHKD 250325Z AUTO 08004KT 9999 BKN330 18/15 Q1018 BLU
cycle: 3

Station Type Date Time Source
EHKD TAF 2019/08/25 01:06 UTC NOAA

TAF TAF EHKD 250001Z 2501/2513 09005KT CAVOK

Example: see airport list